Time;durP1;ratioP1;P1;durP2;ratioP2;P2;SDS_P1;SDS_P2;PMS_P1;PMS_P2;Temp;Humidity;BMP_temperature;BMP_pressure;BME280_temperature;BME280_humidity;BME280_pressure;Samples;Min_cycle;Max_cycle;Signal;HPM_P1;HPM_P2
2021/12/26 00:01:26;;;;;;;32.72;22.40;;;-6.40;1.00;;;;;;5159403;27;20245;-78
2021/12/26 00:03:53;;;;;;;27.85;22.25;;;-6.40;1.00;;;;;;5166029;27;20227;-80
2021/12/26 00:06:25;;;;;;;29.42;21.63;;;-6.50;1.00;;;;;;5165253;27;20808;-80
2021/12/26 00:08:53;;;;;;;25.10;21.55;;;-6.50;1.00;;;;;;5159818;27;20234;-80
2021/12/26 00:11:20;;;;;;;24.27;19.70;;;-6.60;1.00;;;;;;5154787;27;20223;-80
2021/12/26 00:13:50;;;;;;;27.27;20.13;;;-6.60;1.00;;;;;;5155310;27;20226;-81
2021/12/26 00:16:18;;;;;;;30.23;21.98;;;-6.70;1.00;;;;;;5149274;27;20229;-81
2021/12/26 00:18:46;;;;;;;29.85;22.92;;;-6.80;1.00;;;;;;5147789;27;21204;-79
2021/12/26 00:21:13;;;;;;;33.25;24.10;;;-6.80;1.00;;;;;;5148538;27;20241;-79
2021/12/26 00:23:40;;;;;;;27.73;21.67;;;-6.90;1.00;;;;;;5150548;27;20236;-81
2021/12/26 00:26:06;;;;;;;26.10;22.00;;;-6.90;1.00;;;;;;5161600;27;20274;-80
2021/12/26 00:28:33;;;;;;;30.40;22.88;;;-7.00;1.00;;;;;;5151226;27;21865;-81
2021/12/26 00:31:02;;;;;;;34.72;23.50;;;-7.10;1.00;;;;;;5147221;27;20816;-80
2021/12/26 00:33:29;;;;;;;27.08;24.17;;;-7.10;1.00;;;;;;5149326;27;20401;-78
2021/12/26 00:35:57;;;;;;;28.65;21.50;;;-7.00;1.00;;;;;;5159428;27;20266;-78
2021/12/26 00:38:23;;;;;;;32.03;24.42;;;-7.00;1.00;;;;;;5168469;27;20237;-78
2021/12/26 00:40:51;;;;;;;33.47;24.85;;;-7.10;1.00;;;;;;5162137;27;20294;-80
2021/12/26 00:43:18;;;;;;;30.25;23.35;;;-7.10;1.00;;;;;;5167094;27;20213;-77
2021/12/26 00:45:45;;;;;;;32.72;27.50;;;-7.10;1.00;;;;;;5159828;27;20230;-80
2021/12/26 00:48:13;;;;;;;39.90;29.35;;;-7.10;1.00;;;;;;5162820;27;20291;-79
2021/12/26 00:50:42;;;;;;;37.85;30.92;;;-7.10;1.00;;;;;;5162194;27;20214;-79
2021/12/26 00:53:09;;;;;;;35.35;28.95;;;-7.20;1.00;;;;;;5163977;27;20314;-80
2021/12/26 00:55:36;;;;;;;34.33;29.85;;;-7.20;1.00;;;;;;5164054;27;20225;-78
2021/12/26 00:58:03;;;;;;;33.03;27.60;;;-7.20;1.00;;;;;;5153096;27;20230;-79
2021/12/26 01:00:38;;;;;;;39.88;30.00;;;-7.20;1.00;;;;;;5163855;27;20262;-78
2021/12/26 01:03:07;;;;;;;38.95;29.77;;;-7.20;1.00;;;;;;5167676;27;20230;-79
2021/12/26 01:05:38;;;;;;;33.78;29.60;;;-7.10;1.00;;;;;;5161946;27;20218;-79
2021/12/26 01:08:08;;;;;;;43.00;30.35;;;-7.10;1.00;;;;;;5155594;27;20334;-77
2021/12/26 01:10:43;;;;;;;36.70;30.05;;;-7.20;1.00;;;;;;5149790;27;20215;-79
2021/12/26 01:13:17;;;;;;;36.95;29.27;;;-7.30;1.00;;;;;;5157710;27;20274;-79
2021/12/26 01:15:45;;;;;;;38.50;30.15;;;-7.30;1.00;;;;;;5131460;27;20500;-80
2021/12/26 01:18:11;;;;;;;37.22;29.65;;;-7.30;1.00;;;;;;5141771;27;20226;-80
2021/12/26 01:20:46;;;;;;;37.95;31.25;;;-7.40;1.00;;;;;;5144462;27;20230;-78
2021/12/26 01:23:16;;;;;;;34.97;27.52;;;-7.40;1.00;;;;;;5142416;27;20234;-79
2021/12/26 01:25:44;;;;;;;38.17;29.40;;;-7.40;1.00;;;;;;5143303;27;21338;-77
2021/12/26 01:28:11;;;;;;;32.13;27.25;;;-7.40;1.00;;;;;;5142800;27;20243;-79
2021/12/26 01:30:39;;;;;;;35.47;27.85;;;-7.30;1.00;;;;;;5148941;27;20206;-79
2021/12/26 01:33:09;;;;;;;38.58;29.20;;;-7.40;1.00;;;;;;5143973;27;20230;-79
2021/12/26 01:35:36;;;;;;;36.30;29.23;;;-7.40;1.00;;;;;;5148711;27;20243;-79
2021/12/26 01:38:06;;;;;;;30.83;26.70;;;-7.40;1.00;;;;;;5142968;27;20243;-79
2021/12/26 01:40:37;;;;;;;37.33;27.58;;;-7.40;1.00;;;;;;5145612;27;20222;-80
2021/12/26 01:43:04;;;;;;;34.58;24.95;;;-7.50;1.00;;;;;;5141190;27;20253;-81
2021/12/26 01:45:31;;;;;;;28.90;25.02;;;-7.50;1.00;;;;;;5145674;27;20336;-79
2021/12/26 01:47:59;;;;;;;34.75;26.30;;;-7.50;1.00;;;;;;5143312;27;20246;-78
2021/12/26 01:50:27;;;;;;;33.58;24.50;;;-7.50;1.00;;;;;;5155618;27;20735;-79
2021/12/26 01:52:54;;;;;;;30.25;22.73;;;-7.50;1.00;;;;;;5140966;27;20349;-79
2021/12/26 01:55:25;;;;;;;26.20;23.40;;;-7.50;1.00;;;;;;5141115;27;20241;-79
2021/12/26 01:57:55;;;;;;;24.60;21.65;;;-7.50;1.00;;;;;;5139984;27;20226;-79
2021/12/26 02:00:22;;;;;;;29.45;22.70;;;-7.40;1.00;;;;;;5142613;27;20223;-80
2021/12/26 02:02:50;;;;;;;27.85;24.52;;;-7.30;1.00;;;;;;5154636;27;20233;-79
2021/12/26 02:05:17;;;;;;;33.92;25.73;;;-7.30;1.00;;;;;;5154958;27;20274;-81
2021/12/26 02:07:44;;;;;;;33.13;24.08;;;-7.30;1.00;;;;;;5148982;27;20331;-79
2021/12/26 02:10:11;;;;;;;29.08;23.13;;;-7.20;1.00;;;;;;5148274;27;20226;-80
2021/12/26 02:12:40;;;;;;;27.33;23.00;;;-7.20;1.00;;;;;;5143232;27;20350;-80
2021/12/26 02:15:07;;;;;;;32.05;22.75;;;-7.20;1.00;;;;;;5160686;27;20218;-79
2021/12/26 02:17:34;;;;;;;33.60;26.20;;;-7.30;1.00;;;;;;5141284;27;21119;-80
2021/12/26 02:20:21;;;;;;;29.58;23.55;;;-7.30;1.00;;;;;;5141358;27;20471;-79
2021/12/26 02:22:54;;;;;;;31.17;23.85;;;-7.40;1.00;;;;;;5159527;27;20221;-79
2021/12/26 02:25:33;;;;;;;30.35;23.60;;;-7.40;1.00;;;;;;5156115;27;20230;-79
2021/12/26 02:28:00;;;;;;;26.95;23.85;;;-7.40;1.00;;;;;;5147115;27;20257;-79
2021/12/26 02:30:28;;;;;;;31.27;23.85;;;-7.40;1.00;;;;;;5146738;27;20250;-80
2021/12/26 02:32:59;;;;;;;31.48;25.67;;;-7.40;1.00;;;;;;5148555;27;20326;-80
2021/12/26 02:35:27;;;;;;;28.70;23.77;;;-7.30;1.00;;;;;;5149516;27;20218;-79
2021/12/26 02:37:54;;;;;;;33.80;22.50;;;-7.30;1.00;;;;;;5144310;27;20219;-80
2021/12/26 02:40:21;;;;;;;31.05;23.73;;;-7.30;1.00;;;;;;5154051;27;20214;-79
2021/12/26 02:42:48;;;;;;;29.80;23.35;;;-7.40;1.00;;;;;;5161935;27;20285;-78
2021/12/26 02:45:15;;;;;;;28.17;23.35;;;-7.40;1.00;;;;;;5153802;27;20472;-77
2021/12/26 02:47:44;;;;;;;27.83;22.63;;;-7.50;1.00;;;;;;5146241;27;20222;-80
2021/12/26 02:50:14;;;;;;;28.02;20.95;;;-7.50;1.00;;;;;;5147300;27;20250;-81
2021/12/26 02:52:43;;;;;;;26.73;21.80;;;-7.50;1.00;;;;;;5161892;27;20283;-80
2021/12/26 02:55:11;;;;;;;26.15;20.45;;;-7.60;1.00;;;;;;5157137;27;20210;-79
2021/12/26 02:57:38;;;;;;;24.80;21.60;;;-7.60;1.00;;;;;;5162512;27;20253;-79
2021/12/26 03:00:08;;;;;;;27.83;23.77;;;-7.60;1.00;;;;;;5148953;27;20237;-80
2021/12/26 03:02:35;;;;;;;25.30;20.45;;;-7.60;1.00;;;;;;5143714;27;20376;-79
2021/12/26 03:05:05;;;;;;;26.60;22.20;;;-7.70;1.00;;;;;;5148268;27;20222;-80
2021/12/26 03:07:31;;;;;;;26.77;21.27;;;-7.70;1.00;;;;;;5149970;27;20218;-79
2021/12/26 03:10:00;;;;;;;27.05;22.30;;;-7.70;1.00;;;;;;5148525;27;21137;-80
2021/12/26 03:12:28;;;;;;;24.27;21.77;;;-7.70;1.00;;;;;;5142620;27;20272;-78
2021/12/26 03:14:56;;;;;;;27.75;21.52;;;-7.70;1.00;;;;;;5146872;27;20221;-80
2021/12/26 03:17:22;;;;;;;27.88;20.00;;;-7.70;1.00;;;;;;5142731;27;20214;-79
2021/12/26 03:19:49;;;;;;;26.25;21.65;;;-7.70;1.00;;;;;;5146897;27;20219;-79
2021/12/26 03:22:16;;;;;;;25.52;21.02;;;-7.70;1.00;;;;;;5150395;27;20217;-79
2021/12/26 03:24:43;;;;;;;26.90;20.80;;;-7.70;1.00;;;;;;5148036;27;20227;-79
2021/12/26 03:27:12;;;;;;;23.67;20.33;;;-7.80;1.00;;;;;;5148917;27;20800;-80
2021/12/26 03:29:40;;;;;;;24.60;21.60;;;-7.80;1.00;;;;;;5144246;27;20237;-79
2021/12/26 03:32:08;;;;;;;24.20;20.02;;;-7.90;1.00;;;;;;5148526;27;20897;-80
2021/12/26 03:34:35;;;;;;;24.25;21.15;;;-7.90;1.00;;;;;;5148867;27;20277;-80
2021/12/26 03:37:01;;;;;;;29.77;20.75;;;-7.90;1.00;;;;;;5146855;27;20214;-79
2021/12/26 03:39:28;;;;;;;24.00;20.05;;;-8.00;1.00;;;;;;5144324;27;21267;-80
2021/12/26 03:41:55;;;;;;;23.48;20.38;;;-8.00;1.00;;;;;;5143465;27;20244;-79
2021/12/26 03:44:23;;;;;;;25.10;22.05;;;-8.00;1.00;;;;;;5149652;27;20245;-81
2021/12/26 03:46:50;;;;;;;23.58;21.02;;;-8.10;1.00;;;;;;5165578;27;20248;-78
2021/12/26 03:49:17;;;;;;;24.88;20.48;;;-8.10;1.00;;;;;;5152003;27;20424;-79
2021/12/26 03:51:43;;;;;;;24.88;20.00;;;-8.00;1.00;;;;;;5158827;27;20235;-81
2021/12/26 03:54:10;;;;;;;29.15;20.33;;;-8.00;1.00;;;;;;5144456;27;20281;-79
2021/12/26 03:56:37;;;;;;;24.67;20.35;;;-8.00;1.00;;;;;;5146514;27;20248;-79
2021/12/26 03:59:04;;;;;;;29.33;22.13;;;-8.00;1.00;;;;;;5152039;27;20774;-79
2021/12/26 04:01:32;;;;;;;27.58;19.77;;;-8.10;1.00;;;;;;5148567;27;20234;-80
2021/12/26 04:03:59;;;;;;;28.80;20.90;;;-8.10;1.00;;;;;;5146811;27;20218;-78
2021/12/26 04:06:25;;;;;;;22.80;18.58;;;-8.10;1.00;;;;;;5146451;27;20222;-80
2021/12/26 04:08:52;;;;;;;24.27;18.60;;;-8.20;1.00;;;;;;5146669;27;20226;-81
2021/12/26 04:11:19;;;;;;;23.95;18.65;;;-8.20;1.00;;;;;;5149524;27;20234;-80
2021/12/26 04:13:46;;;;;;;25.98;19.25;;;-8.20;1.00;;;;;;5148182;27;20282;-79
2021/12/26 04:16:13;;;;;;;23.33;18.63;;;-8.20;1.00;;;;;;5147488;27;20218;-80
2021/12/26 04:18:41;;;;;;;21.38;18.30;;;-8.30;1.00;;;;;;5157560;27;20206;-77
2021/12/26 04:21:08;;;;;;;23.67;18.73;;;-8.20;1.00;;;;;;5157889;27;20330;-79
2021/12/26 04:23:35;;;;;;;24.15;17.38;;;-8.30;1.00;;;;;;5153445;27;20282;-81
2021/12/26 04:26:02;;;;;;;17.88;15.98;;;-8.30;1.00;;;;;;5141948;27;21193;-78
2021/12/26 04:28:29;;;;;;;18.30;15.23;;;-8.30;1.00;;;;;;5143784;27;20324;-80
2021/12/26 04:30:55;;;;;;;20.50;15.32;;;-8.20;1.00;;;;;;5149151;27;20253;-79
2021/12/26 04:33:22;;;;;;;18.42;16.17;;;-8.30;1.00;;;;;;5143470;27;20706;-80
2021/12/26 04:35:50;;;;;;;18.88;16.70;;;-8.30;1.00;;;;;;5144099;27;20250;-79
2021/12/26 04:38:17;;;;;;;22.42;17.25;;;-8.30;1.00;;;;;;5145165;27;20399;-79
2021/12/26 04:40:44;;;;;;;19.55;16.92;;;-8.30;1.00;;;;;;5144774;27;20222;-79
2021/12/26 04:43:11;;;;;;;21.33;17.60;;;-8.30;1.00;;;;;;5151282;27;20266;-79
2021/12/26 04:45:38;;;;;;;19.25;15.35;;;-8.30;1.00;;;;;;5151444;27;20236;-77
2021/12/26 04:48:05;;;;;;;19.17;14.82;;;-8.30;1.00;;;;;;5168723;27;20608;-79
2021/12/26 04:50:32;;;;;;;21.17;14.20;;;-8.30;1.00;;;;;;5155095;27;20260;-78
2021/12/26 04:53:00;;;;;;;21.70;15.65;;;-8.30;1.00;;;;;;5160846;27;20226;-78
2021/12/26 04:55:28;;;;;;;18.17;14.90;;;-8.30;1.00;;;;;;5153495;27;20305;-79
2021/12/26 04:57:55;;;;;;;16.58;14.73;;;-8.30;1.00;;;;;;5158800;27;20229;-79
2021/12/26 05:00:24;;;;;;;18.02;14.80;;;-8.30;1.00;;;;;;5159333;27;20771;-79
2021/12/26 05:02:51;;;;;;;18.30;15.00;;;-8.30;1.00;;;;;;5168165;27;20233;-78
2021/12/26 05:05:18;;;;;;;19.77;15.13;;;-8.30;1.00;;;;;;5165279;27;20222;-79
2021/12/26 05:07:45;;;;;;;24.10;15.15;;;-8.30;1.00;;;;;;5166838;27;20242;-79
2021/12/26 05:10:17;;;;;;;20.52;17.35;;;-8.30;1.00;;;;;;5164629;27;21179;-81
2021/12/26 05:12:44;;;;;;;19.45;15.68;;;-8.40;1.00;;;;;;5149200;27;20230;-80
2021/12/26 05:15:12;;;;;;;19.00;14.85;;;-8.40;1.00;;;;;;5150485;27;20435;-80
2021/12/26 05:17:40;;;;;;;20.83;15.43;;;-8.40;1.00;;;;;;5159275;27;20744;-79
2021/12/26 05:20:08;;;;;;;18.05;13.90;;;-8.40;1.00;;;;;;5151046;27;20225;-81
2021/12/26 05:22:35;;;;;;;18.75;14.65;;;-8.40;1.00;;;;;;5152350;27;20246;-77
2021/12/26 05:25:03;;;;;;;18.50;14.98;;;-8.40;1.00;;;;;;5167614;27;20266;-78
2021/12/26 05:27:31;;;;;;;22.48;15.65;;;-8.40;1.00;;;;;;5168808;27;20240;-80
2021/12/26 05:29:57;;;;;;;23.05;15.60;;;-8.40;1.00;;;;;;5175764;27;20234;-78
2021/12/26 05:32:24;;;;;;;23.40;14.10;;;-8.40;1.00;;;;;;5161791;27;20294;-79
2021/12/26 05:34:51;;;;;;;15.10;11.98;;;-8.40;1.00;;;;;;5163005;27;21215;-81
2021/12/26 05:37:18;;;;;;;16.05;13.68;;;-8.40;1.00;;;;;;5166189;27;20419;-80
2021/12/26 05:39:45;;;;;;;14.98;13.05;;;-8.30;1.00;;;;;;5165737;27;20250;-78
2021/12/26 05:42:16;;;;;;;18.02;13.40;;;-8.40;1.00;;;;;;5166258;27;20251;-79
2021/12/26 05:44:45;;;;;;;20.92;14.07;;;-8.30;1.00;;;;;;5167336;27;20219;-79
2021/12/26 05:47:13;;;;;;;19.08;11.93;;;-8.30;1.00;;;;;;5151348;27;20234;-81
2021/12/26 05:49:40;;;;;;;16.90;12.77;;;-8.30;1.00;;;;;;5151382;27;20242;-81
2021/12/26 05:52:08;;;;;;;20.25;13.10;;;-8.30;1.00;;;;;;5145558;27;20280;-81
2021/12/26 05:54:35;;;;;;;17.10;12.68;;;-8.30;1.00;;;;;;5152992;27;20285;-79
2021/12/26 05:57:02;;;;;;;15.82;12.82;;;-8.40;1.00;;;;;;5160768;27;20250;-78
2021/12/26 05:59:28;;;;;;;16.23;13.20;;;-8.40;1.00;;;;;;5160939;27;20713;-80
2021/12/26 06:01:57;;;;;;;15.35;12.60;;;-8.40;1.00;;;;;;5149022;27;20289;-81
2021/12/26 06:04:24;;;;;;;13.57;12.18;;;-8.50;1.00;;;;;;5153193;27;20282;-79
2021/12/26 06:06:51;;;;;;;15.80;13.32;;;-8.50;1.00;;;;;;5150837;27;20225;-79
2021/12/26 06:09:17;;;;;;;16.10;12.63;;;-8.60;1.00;;;;;;5151991;27;20229;-79
2021/12/26 06:11:44;;;;;;;14.73;12.07;;;-8.60;1.00;;;;;;5151680;27;21417;-80
2021/12/26 06:14:11;;;;;;;19.65;14.27;;;-8.60;1.00;;;;;;5148830;27;21150;-81
2021/12/26 06:16:38;;;;;;;15.73;11.63;;;-8.60;1.00;;;;;;5147780;27;20227;-80
2021/12/26 06:19:06;;;;;;;16.02;11.57;;;-8.60;1.00;;;;;;5150564;27;20256;-80
2021/12/26 06:21:33;;;;;;;14.45;10.10;;;-8.50;1.00;;;;;;5149209;27;20250;-79
2021/12/26 06:24:00;;;;;;;14.85;11.15;;;-8.50;1.00;;;;;;5158576;27;20272;-78
2021/12/26 06:26:30;;;;;;;19.42;11.57;;;-8.40;1.00;;;;;;5161999;27;20222;-82
2021/12/26 06:28:57;;;;;;;15.70;12.20;;;-8.40;1.00;;;;;;5154814;27;21002;-80
2021/12/26 06:31:24;;;;;;;18.38;12.63;;;-8.30;1.00;;;;;;5157655;27;20232;-77
2021/12/26 06:33:51;;;;;;;13.25;10.73;;;-8.30;1.00;;;;;;5179452;27;20318;-79
2021/12/26 06:36:19;;;;;;;16.77;11.73;;;-8.40;1.00;;;;;;5176709;27;20262;-78
2021/12/26 06:38:47;;;;;;;17.05;11.38;;;-8.40;1.00;;;;;;5176248;27;20468;-79
2021/12/26 06:41:15;;;;;;;14.43;11.32;;;-8.40;1.00;;;;;;5174576;27;20222;-78
2021/12/26 06:43:42;;;;;;;15.10;11.38;;;-8.40;1.00;;;;;;5180068;27;20222;-77
2021/12/26 06:46:10;;;;;;;14.50;10.48;;;-8.40;1.00;;;;;;5173721;27;20223;-79
2021/12/26 06:48:39;;;;;;;15.30;11.15;;;-8.40;1.00;;;;;;5171055;27;20440;-79
2021/12/26 06:51:06;;;;;;;15.90;10.63;;;-8.50;1.00;;;;;;5163623;27;20281;-78
2021/12/26 06:53:34;;;;;;;13.60;10.60;;;-8.50;1.00;;;;;;5170148;27;20249;-77
2021/12/26 06:56:01;;;;;;;15.52;10.38;;;-8.50;1.00;;;;;;5178339;27;20219;-78
2021/12/26 06:58:28;;;;;;;13.75;9.38;;;-8.40;1.00;;;;;;5170058;27;20245;-78
2021/12/26 07:00:55;;;;;;;15.23;10.32;;;-8.40;1.00;;;;;;5169527;27;20226;-79
2021/12/26 07:03:22;;;;;;;14.63;10.25;;;-8.40;1.00;;;;;;5163056;27;20226;-79
2021/12/26 07:05:49;;;;;;;14.93;10.25;;;-8.40;1.00;;;;;;5167958;27;20215;-78
2021/12/26 07:08:15;;;;;;;15.30;10.35;;;-8.30;1.00;;;;;;5165872;27;20214;-78
2021/12/26 07:10:44;;;;;;;12.05;10.40;;;-8.30;1.00;;;;;;5166192;27;20279;-79
2021/12/26 07:13:11;;;;;;;16.35;10.52;;;-8.30;1.00;;;;;;5164545;27;20394;-79
2021/12/26 07:15:38;;;;;;;14.55;9.38;;;-8.40;1.00;;;;;;5161527;27;20238;-78
2021/12/26 07:18:05;;;;;;;17.50;11.57;;;-8.30;1.00;;;;;;5153215;27;20279;-78
2021/12/26 07:20:32;;;;;;;14.10;10.45;;;-8.30;1.00;;;;;;5153361;27;20981;-81
2021/12/26 07:22:59;;;;;;;13.95;10.07;;;-8.30;1.00;;;;;;5150801;27;20330;-81
2021/12/26 07:25:25;;;;;;;18.80;10.25;;;-8.30;1.00;;;;;;5152806;27;20214;-79
2021/12/26 07:27:53;;;;;;;13.50;10.00;;;-8.30;1.00;;;;;;5149921;27;21111;-79
2021/12/26 07:30:20;;;;;;;17.58;11.18;;;-8.30;1.00;;;;;;5152806;27;20589;-80
2021/12/26 07:32:47;;;;;;;15.60;10.40;;;-8.30;1.00;;;;;;5153076;27;20223;-78
2021/12/26 07:35:14;;;;;;;17.55;11.63;;;-8.40;1.00;;;;;;5159078;27;20806;-79
2021/12/26 07:37:41;;;;;;;15.55;11.65;;;-8.40;1.00;;;;;;5153925;27;20215;-78
2021/12/26 07:40:09;;;;;;;15.88;11.60;;;-8.30;1.00;;;;;;5151002;27;20290;-78
2021/12/26 07:42:36;;;;;;;14.40;10.07;;;-8.30;1.00;;;;;;5150265;27;20261;-78
2021/12/26 07:45:05;;;;;;;15.00;10.70;;;-8.20;1.00;;;;;;5149584;27;20314;-78
2021/12/26 07:47:32;;;;;;;13.70;11.73;;;-8.10;1.00;;;;;;5145493;27;20321;-77
2021/12/26 07:50:00;;;;;;;16.05;11.25;;;-8.10;1.00;;;;;;5148354;27;20222;-78
2021/12/26 07:52:31;;;;;;;13.45;9.93;;;-8.10;1.00;;;;;;5146750;27;20257;-77
2021/12/26 07:54:58;;;;;;;15.68;10.15;;;-8.00;1.00;;;;;;5150750;27;22477;-78
2021/12/26 07:57:25;;;;;;;15.98;11.93;;;-7.90;1.00;;;;;;5149701;27;20215;-78
2021/12/26 07:59:51;;;;;;;15.65;10.23;;;-7.90;1.00;;;;;;5149604;27;20224;-78
2021/12/26 08:02:20;;;;;;;16.70;11.98;;;-7.90;1.00;;;;;;5147255;27;20249;-78
2021/12/26 08:04:48;;;;;;;14.35;11.15;;;-7.90;1.00;;;;;;5147905;27;20206;-79
2021/12/26 08:07:15;;;;;;;16.48;10.35;;;-7.80;1.00;;;;;;5152485;27;20297;-79
2021/12/26 08:09:42;;;;;;;14.52;10.77;;;-7.80;1.00;;;;;;5149792;27;20299;-79
2021/12/26 08:12:09;;;;;;;13.90;11.13;;;-7.70;1.00;;;;;;5147266;27;24922;-79
2021/12/26 08:14:36;;;;;;;15.30;10.98;;;-7.70;1.00;;;;;;5144912;27;21298;-78
2021/12/26 08:17:03;;;;;;;16.42;11.52;;;-7.60;1.00;;;;;;5148629;27;20293;-78
2021/12/26 08:19:32;;;;;;;19.20;10.95;;;-7.50;1.00;;;;;;5148613;27;20773;-78
2021/12/26 08:21:59;;;;;;;20.05;11.95;;;-7.00;1.00;;;;;;5146194;27;20238;-79
2021/12/26 08:24:26;;;;;;;20.52;13.45;;;-6.10;1.00;;;;;;5144951;27;20250;-79
2021/12/26 08:26:53;;;;;;;17.52;11.10;;;-5.30;1.00;;;;;;5146657;27;20327;-79
2021/12/26 08:29:21;;;;;;;19.63;15.98;;;-4.70;1.00;;;;;;5144395;27;20215;-79
2021/12/26 08:31:49;;;;;;;19.30;15.35;;;-4.30;1.00;;;;;;5142399;27;20637;-79
2021/12/26 08:34:21;;;;;;;16.15;11.77;;;-4.20;1.00;;;;;;5148237;27;20222;-79
2021/12/26 08:36:58;;;;;;;18.48;13.52;;;-4.10;1.00;;;;;;5148223;27;20222;-79
2021/12/26 08:39:26;;;;;;;21.48;12.68;;;-4.20;1.00;;;;;;5154031;27;20448;-79
2021/12/26 08:41:53;;;;;;;18.55;13.32;;;-4.50;1.00;;;;;;5159198;27;20214;-79
2021/12/26 08:44:19;;;;;;;13.70;11.95;;;-4.70;1.00;;;;;;5148921;27;20283;-78
2021/12/26 08:46:47;;;;;;;17.90;13.27;;;-4.90;1.00;;;;;;5151730;27;20225;-80
2021/12/26 08:49:14;;;;;;;13.77;11.90;;;-5.10;1.00;;;;;;5148717;27;20301;-79
2021/12/26 08:51:42;;;;;;;16.92;12.75;;;-5.30;1.00;;;;;;5147073;27;21163;-77
2021/12/26 08:54:11;;;;;;;16.40;12.63;;;-5.40;1.00;;;;;;5146336;27;20233;-78
2021/12/26 08:56:37;;;;;;;17.95;12.95;;;-5.50;1.00;;;;;;5143606;27;21152;-77
2021/12/26 08:59:04;;;;;;;22.85;14.95;;;-5.60;1.00;;;;;;5144660;27;20224;-76
2021/12/26 09:01:31;;;;;;;18.35;13.23;;;-5.60;1.00;;;;;;5146725;27;20571;-78
2021/12/26 09:03:58;;;;;;;19.30;14.20;;;-5.60;1.00;;;;;;5141952;27;20325;-78
2021/12/26 09:06:24;;;;;;;20.17;15.80;;;-5.60;1.00;;;;;;5142092;27;20759;-77
2021/12/26 09:08:51;;;;;;;18.60;14.45;;;-5.50;1.00;;;;;;5140962;27;20211;-77
2021/12/26 09:11:19;;;;;;;21.15;15.80;;;-5.50;1.00;;;;;;5140869;27;20226;-77
2021/12/26 09:13:46;;;;;;;19.45;14.80;;;-5.30;1.00;;;;;;5147881;27;20273;-77
2021/12/26 09:16:13;;;;;;;25.02;16.45;;;-5.10;1.00;;;;;;5132832;27;20237;-78
2021/12/26 09:18:41;;;;;;;20.30;14.57;;;-5.10;1.00;;;;;;5138552;27;20915;-79
2021/12/26 09:21:08;;;;;;;18.92;15.38;;;-5.10;1.00;;;;;;5135978;27;21511;-79
2021/12/26 09:23:35;;;;;;;22.60;16.15;;;-4.90;1.00;;;;;;5142350;27;20680;-81
2021/12/26 09:26:01;;;;;;;22.58;16.10;;;-4.70;1.00;;;;;;5147412;27;20270;-76
2021/12/26 09:28:30;;;;;;;20.30;16.50;;;-4.50;1.00;;;;;;5139111;27;20425;-78
2021/12/26 09:30:57;;;;;;;20.08;17.08;;;-4.20;1.00;;;;;;5137676;27;20233;-78
2021/12/26 09:33:24;;;;;;;21.48;17.40;;;-3.90;1.00;;;;;;5139507;27;20701;-77
2021/12/26 09:35:51;;;;;;;27.75;19.35;;;-3.90;1.00;;;;;;5136727;27;20224;-78
2021/12/26 09:38:19;;;;;;;28.35;20.70;;;-3.80;1.00;;;;;;5141182;27;20982;-79
2021/12/26 09:40:46;;;;;;;29.42;20.58;;;-3.60;1.00;;;;;;5146061;27;20314;-77
2021/12/26 09:43:12;;;;;;;23.25;18.63;;;-3.50;1.00;;;;;;5155083;27;20500;-76
2021/12/26 09:45:40;;;;;;;28.10;19.60;;;-3.40;1.00;;;;;;5142105;27;20218;-78
2021/12/26 09:48:07;;;;;;;22.02;17.23;;;-3.30;1.00;;;;;;5138819;27;20218;-78
2021/12/26 09:50:34;;;;;;;26.80;19.83;;;-3.10;1.00;;;;;;5139013;27;20241;-79
2021/12/26 09:53:01;;;;;;;22.10;17.33;;;-3.20;1.00;;;;;;5143298;27;20229;-78
2021/12/26 09:55:29;;;;;;;24.30;16.17;;;-3.30;1.00;;;;;;5136736;27;20230;-80
2021/12/26 09:57:56;;;;;;;21.10;17.33;;;-3.10;1.00;;;;;;5151725;27;20258;-78
2021/12/26 10:00:27;;;;;;;22.42;15.90;;;-2.30;1.00;;;;;;5158573;27;20221;-78
2021/12/26 10:03:18;;;;;;;18.55;14.98;;;-1.50;1.00;;;;;;5146331;27;20222;-79
2021/12/26 10:06:08;;;;;;;18.60;14.45;;;-1.20;1.00;;;;;;5142529;27;20234;-80
2021/12/26 10:08:50;;;;;;;17.00;12.95;;;-0.60;1.00;;;;;;5158945;27;20214;-78
2021/12/26 10:11:20;;;;;;;20.83;14.90;;;-0.40;1.00;;;;;;5164708;27;20488;-79
2021/12/26 10:13:48;;;;;;;20.00;14.45;;;-0.10;1.00;;;;;;5171012;27;20256;-80
2021/12/26 10:16:18;;;;;;;20.77;14.60;;;-0.50;1.00;;;;;;5162659;27;20283;-79
2021/12/26 10:18:47;;;;;;;18.08;14.45;;;-0.60;1.00;;;;;;5169489;27;20226;-77
2021/12/26 10:21:29;;;;;;;15.02;13.43;;;-0.50;1.00;;;;;;5171074;27;20241;-77
2021/12/26 10:23:58;;;;;;;16.38;13.18;;;0.00;1.00;;;;;;5168260;27;20218;-76
2021/12/26 10:26:28;;;;;;;17.90;13.20;;;0.60;1.00;;;;;;5160107;27;20213;-77
2021/12/26 10:29:26;;;;;;;16.70;14.38;;;1.00;1.00;;;;;;5157554;27;20287;-79
2021/12/26 10:32:07;;;;;;;16.80;13.05;;;1.00;1.00;;;;;;5135657;27;20273;-77
2021/12/26 10:34:39;;;;;;;15.88;12.82;;;0.50;1.00;;;;;;5155526;27;20259;-80
2021/12/26 10:37:09;;;;;;;16.27;12.23;;;0.10;1.00;;;;;;5160661;27;20249;-80
2021/12/26 10:39:40;;;;;;;13.82;11.88;;;0.70;1.00;;;;;;5152575;27;20750;-80
2021/12/26 10:42:10;;;;;;;14.45;11.85;;;1.10;1.00;;;;;;5145372;27;20302;-77
2021/12/26 10:44:41;;;;;;;13.20;10.77;;;0.50;1.00;;;;;;5145025;27;20222;-79
2021/12/26 10:47:11;;;;;;;15.23;11.88;;;0.60;1.00;;;;;;5144507;27;20317;-79
2021/12/26 10:49:42;;;;;;;16.75;12.50;;;1.20;1.00;;;;;;5156501;27;20202;-79
2021/12/26 10:52:18;;;;;;;13.35;11.95;;;1.90;1.00;;;;;;5158751;27;20287;-78
2021/12/26 10:54:50;;;;;;;11.50;10.27;;;2.20;1.00;;;;;;5158422;27;20218;-79
2021/12/26 10:57:20;;;;;;;14.07;10.02;;;2.00;1.00;;;;;;5150671;27;20214;-79
2021/12/26 10:59:57;;;;;;;12.77;10.75;;;2.20;1.00;;;;;;5150495;27;20346;-79
2021/12/26 11:02:27;;;;;;;12.75;9.82;;;1.70;1.00;;;;;;5150865;27;20276;-82
2021/12/26 11:05:03;;;;;;;48.20;34.88;;;1.20;1.00;;;;;;5147638;27;20279;-78
2021/12/26 11:07:45;;;;;;;14.30;10.75;;;1.10;1.00;;;;;;5150465;27;20218;-79
2021/12/26 11:10:15;;;;;;;9.98;8.95;;;1.20;1.00;;;;;;5146742;27;20305;-79
2021/12/26 11:12:45;;;;;;;12.90;9.55;;;1.70;1.00;;;;;;5148080;27;20223;-79
2021/12/26 11:15:14;;;;;;;12.77;10.70;;;2.10;1.00;;;;;;5150139;27;20216;-79
2021/12/26 11:17:44;;;;;;;14.02;10.50;;;2.60;1.00;;;;;;5150099;27;20234;-78
2021/12/26 11:20:21;;;;;;;12.55;10.15;;;2.90;1.00;;;;;;5152105;27;20228;-78
2021/12/26 11:22:48;;;;;;;14.63;10.57;;;3.10;1.00;;;;;;5166013;27;20237;-79
2021/12/26 11:25:15;;;;;;;11.90;9.50;;;2.90;1.00;;;;;;5152984;27;20230;-79
2021/12/26 11:27:42;;;;;;;12.18;8.05;;;2.70;1.00;;;;;;5152676;27;20541;-80
2021/12/26 11:30:11;;;;;;;10.85;8.57;;;2.60;1.00;;;;;;5148254;27;20253;-80
2021/12/26 11:32:39;;;;;;;11.23;8.35;;;2.70;1.00;;;;;;5149481;27;20655;-79
2021/12/26 11:35:07;;;;;;;11.52;8.38;;;3.10;1.00;;;;;;5156225;27;20256;-79
2021/12/26 11:37:36;;;;;;;11.35;7.90;;;2.90;1.00;;;;;;5143829;27;20210;-78
2021/12/26 11:40:06;;;;;;;10.88;8.88;;;2.60;1.00;;;;;;5142601;27;20250;-77
2021/12/26 11:42:50;;;;;;;13.20;9.20;;;2.60;1.00;;;;;;5156289;27;20206;-78
2021/12/26 11:45:24;;;;;;;15.38;8.73;;;2.80;1.00;;;;;;5163046;27;20279;-77
2021/12/26 11:48:28;;;;;;;8.98;7.93;;;3.50;1.00;;;;;;5145171;27;20226;-79
2021/12/26 11:51:08;;;;;;;9.95;8.07;;;4.50;1.00;;;;;;5145100;27;20236;-78
2021/12/26 11:54:05;;;;;;;9.55;7.55;;;4.50;1.00;;;;;;5150585;27;20233;-79
2021/12/26 11:56:40;;;;;;;10.32;7.80;;;4.70;1.00;;;;;;5143948;27;20242;-79
2021/12/26 11:59:48;;;;;;;11.30;6.78;;;4.80;1.00;;;;;;5140509;27;20246;-78
2021/12/26 12:02:34;;;;;;;8.75;6.95;;;5.20;1.00;;;;;;5144333;27;20229;-81
2021/12/26 12:05:12;;;;;;;8.60;6.53;;;5.50;1.00;;;;;;5148173;27;20309;-80
2021/12/26 12:07:51;;;;;;;9.73;6.80;;;5.90;1.00;;;;;;5147896;27;20222;-79
2021/12/26 12:10:37;;;;;;;10.23;6.90;;;7.00;1.00;;;;;;5146861;27;20265;-79
2021/12/26 12:13:05;;;;;;;11.05;7.05;;;7.00;1.00;;;;;;5147357;27;20326;-78
2021/12/26 12:15:57;;;;;;;12.73;9.52;;;6.70;1.00;;;;;;5147547;27;21622;-80
2021/12/26 12:18:27;;;;;;;9.75;6.47;;;6.60;1.00;;;;;;5134207;27;20255;-78
2021/12/26 12:21:12;;;;;;;11.77;6.78;;;6.80;1.00;;;;;;5150613;27;20325;-77
2021/12/26 12:23:58;;;;;;;7.65;6.35;;;7.20;1.00;;;;;;5152571;27;20246;-79
2021/12/26 12:26:46;;;;;;;9.70;6.55;;;7.50;1.00;;;;;;5160192;27;20245;-80
2021/12/26 12:29:15;;;;;;;7.68;6.30;;;7.80;1.00;;;;;;5165077;27;20230;-80
2021/12/26 12:31:42;;;;;;;6.97;6.30;;;8.20;1.00;;;;;;5166182;27;20250;-79
2021/12/26 12:34:12;;;;;;;9.60;6.00;;;8.40;1.00;;;;;;5154413;27;20231;-79
2021/12/26 12:36:42;;;;;;;10.25;7.00;;;9.30;1.00;;;;;;5148758;27;20222;-78
2021/12/26 12:39:12;;;;;;;7.00;5.93;;;9.90;1.00;;;;;;5162922;27;20290;-78
2021/12/26 12:41:40;;;;;;;8.98;5.97;;;10.90;1.00;;;;;;5155027;27;20468;-78
2021/12/26 12:44:31;;;;;;;8.77;5.97;;;11.10;1.00;;;;;;5144207;27;20241;-80
2021/12/26 12:47:06;;;;;;;7.68;5.82;;;10.60;1.00;;;;;;5143156;27;20998;-79
2021/12/26 12:49:46;;;;;;;8.93;6.43;;;11.10;1.00;;;;;;5148691;27;20292;-78
2021/12/26 12:52:41;;;;;;;9.00;6.30;;;12.10;1.00;;;;;;5142696;27;20542;-78